createdAt,value
2019-04-29T00:02:24.755Z,9.80
2019-04-29T00:04:53.274Z,9.37
2019-04-29T00:07:21.878Z,8.73
2019-04-29T00:09:50.358Z,9.50
2019-04-29T00:12:19.470Z,9.13
2019-04-29T00:14:55.716Z,8.40
2019-04-29T00:17:34.934Z,8.07
2019-04-29T00:20:09.555Z,7.20
2019-04-29T00:22:38.066Z,8.33
2019-04-29T00:25:06.755Z,7.08
2019-04-29T00:27:35.406Z,7.73
2019-04-29T00:30:08.131Z,7.80
2019-04-29T00:32:37.506Z,6.30
2019-04-29T00:35:07.794Z,6.60
2019-04-29T00:37:46.973Z,6.50
2019-04-29T00:40:33.441Z,6.23
2019-04-29T00:43:15.323Z,6.23
2019-04-29T00:45:44.027Z,6.80
2019-04-29T00:48:12.610Z,7.17
2019-04-29T00:50:41.153Z,7.10
2019-04-29T00:53:09.705Z,6.37
2019-04-29T00:55:38.301Z,8.00
2019-04-29T00:58:06.851Z,7.63
2019-04-29T01:00:40.578Z,6.22
2019-04-29T01:03:09.331Z,5.67
2019-04-29T01:05:37.986Z,5.17
2019-04-29T01:08:06.775Z,5.50
2019-04-29T01:10:35.363Z,6.63
2019-04-29T01:13:04.138Z,5.33
2019-04-29T01:15:32.837Z,5.20
2019-04-29T01:18:01.410Z,4.70
2019-04-29T01:20:29.964Z,6.10
2019-04-29T01:22:58.505Z,5.35
2019-04-29T01:25:27.101Z,4.83
2019-04-29T01:27:57.876Z,5.02
2019-04-29T01:30:41.485Z,4.07
2019-04-29T01:33:10.080Z,4.83
2019-04-29T01:35:39.555Z,4.43
2019-04-29T01:38:08.108Z,5.23
2019-04-29T01:40:54.640Z,5.60
2019-04-29T01:43:23.386Z,5.00
2019-04-29T01:45:51.934Z,5.73
2019-04-29T01:48:20.526Z,5.73
2019-04-29T01:50:49.076Z,4.60
2019-04-29T01:53:17.623Z,5.30
2019-04-29T01:55:46.292Z,5.33
2019-04-29T01:58:14.914Z,6.07
2019-04-29T02:00:43.488Z,5.80
2019-04-29T02:03:12.059Z,6.33
2019-04-29T02:05:40.600Z,5.87
2019-04-29T02:08:09.078Z,5.43
2019-04-29T02:10:38.153Z,4.58
2019-04-29T02:13:06.700Z,4.67
2019-04-29T02:15:35.201Z,5.03
2019-04-29T02:18:03.863Z,4.80
2019-04-29T02:20:32.408Z,6.13
2019-04-29T02:23:02.593Z,4.97
2019-04-29T02:25:32.840Z,5.10
2019-04-29T02:28:01.393Z,4.85
2019-04-29T02:30:33.032Z,4.87
2019-04-29T02:33:01.602Z,6.40
2019-04-29T02:35:30.135Z,5.07
2019-04-29T02:37:58.710Z,5.33
2019-04-29T02:40:29.669Z,6.60
2019-04-29T02:42:59.866Z,6.30
2019-04-29T02:45:30.066Z,5.50
2019-04-29T02:47:58.640Z,6.17
2019-04-29T02:50:27.225Z,4.83
2019-04-29T02:52:55.935Z,5.00
2019-04-29T02:55:29.023Z,5.70
2019-04-29T02:58:04.987Z,5.07
2019-04-29T03:00:35.125Z,4.90
2019-04-29T03:03:08.340Z,5.40
2019-04-29T03:05:41.361Z,4.30
2019-04-29T03:08:09.884Z,4.40
2019-04-29T03:10:38.482Z,5.50
2019-04-29T03:13:07.163Z,3.57
2019-04-29T03:15:38.726Z,5.53
2019-04-29T03:18:07.335Z,4.20
2019-04-29T03:20:40.427Z,3.80
2019-04-29T03:23:10.628Z,3.23
2019-04-29T03:25:58.647Z,4.03
2019-04-29T03:28:27.194Z,3.87
2019-04-29T03:30:56.226Z,4.15
2019-04-29T03:33:24.891Z,3.63
2019-04-29T03:35:53.469Z,3.60
2019-04-29T03:38:22.113Z,3.60
2019-04-29T03:40:50.757Z,2.87
2019-04-29T03:43:19.298Z,3.37
2019-04-29T03:45:47.843Z,3.67
2019-04-29T03:48:16.445Z,2.60
2019-04-29T03:50:44.981Z,3.27
2019-04-29T03:53:13.554Z,2.63
2019-04-29T03:55:42.137Z,4.53
2019-04-29T03:58:10.692Z,2.93
2019-04-29T04:00:43.592Z,2.52
2019-04-29T04:03:11.198Z,3.33
2019-04-29T04:05:41.378Z,2.93
2019-04-29T04:08:17.517Z,2.70
2019-04-29T04:10:46.114Z,3.80
2019-04-29T04:13:14.640Z,3.03
2019-04-29T04:15:43.220Z,4.40
2019-04-29T04:18:13.466Z,4.87
2019-04-29T04:20:42.008Z,2.43
2019-04-29T04:23:10.611Z,3.47
2019-04-29T04:25:39.230Z,3.37
2019-04-29T04:28:07.744Z,1.98
2019-04-29T04:30:36.286Z,2.60
2019-04-29T04:33:04.945Z,2.33
2019-04-29T04:35:33.584Z,3.90
2019-04-29T04:38:02.199Z,2.87
2019-04-29T04:40:32.501Z,3.17
2019-04-29T04:43:01.052Z,2.37
2019-04-29T04:45:29.787Z,2.35
2019-04-29T04:47:58.370Z,3.13
2019-04-29T04:50:26.983Z,2.95
2019-04-29T04:52:55.539Z,3.70
2019-04-29T04:55:25.832Z,3.33
2019-04-29T04:57:54.334Z,3.20
2019-04-29T05:00:24.884Z,3.60
2019-04-29T05:02:53.461Z,3.40
2019-04-29T05:05:21.963Z,3.83
2019-04-29T05:07:50.513Z,3.70
2019-04-29T05:10:19.086Z,3.83
2019-04-29T05:12:47.698Z,3.50
2019-04-29T05:15:16.413Z,3.33
2019-04-29T05:17:45.078Z,3.80
2019-04-29T05:20:13.733Z,3.72
2019-04-29T05:22:43.997Z,3.97
2019-04-29T05:25:12.909Z,3.50
2019-04-29T05:27:41.458Z,4.28
2019-04-29T05:30:10.358Z,3.42
2019-04-29T05:32:38.947Z,2.98
2019-04-29T05:35:09.388Z,3.23
2019-04-29T05:37:39.581Z,2.30
2019-04-29T05:40:08.503Z,3.12
2019-04-29T05:42:37.071Z,3.30
2019-04-29T05:45:29.533Z,4.03
2019-04-29T05:47:59.645Z,3.13
2019-04-29T05:50:29.834Z,2.90
2019-04-29T05:53:11.421Z,2.97
2019-04-29T05:55:40.404Z,2.58
2019-04-29T05:58:11.791Z,2.67
2019-04-29T06:00:42.597Z,3.40
2019-04-29T06:03:11.138Z,2.63
2019-04-29T06:05:39.814Z,4.83
2019-04-29T06:08:08.381Z,4.03
2019-04-29T06:10:37.049Z,3.05
2019-04-29T06:13:05.666Z,3.37
2019-04-29T06:15:34.346Z,3.75
2019-04-29T06:18:02.897Z,3.33
2019-04-29T06:20:31.443Z,4.03
2019-04-29T06:23:00.111Z,2.25
2019-04-29T06:25:28.653Z,3.07
2019-04-29T06:27:57.484Z,3.37
2019-04-29T06:30:26.145Z,2.53
2019-04-29T06:32:55.103Z,1.10
2019-04-29T06:35:23.765Z,2.52
2019-04-29T06:37:52.419Z,1.90
2019-04-29T06:40:20.972Z,3.25
2019-04-29T06:42:53.266Z,1.80
2019-04-29T06:45:19.913Z,2.08
2019-04-29T06:47:48.461Z,2.10
2019-04-29T06:50:17.368Z,1.72
2019-04-29T06:52:45.958Z,2.20
2019-04-29T06:55:18.714Z,1.92
2019-04-29T06:57:47.324Z,2.00
2019-04-29T07:00:17.600Z,1.25
2019-04-29T07:02:49.895Z,1.55
2019-04-29T07:05:16.568Z,2.45
2019-04-29T07:07:45.191Z,2.17
2019-04-29T07:10:16.534Z,1.55
2019-04-29T07:12:47.634Z,0.62
2019-04-29T07:15:17.278Z,0.90
2019-04-29T07:17:45.844Z,0.80
2019-04-29T07:20:14.580Z,0.90
2019-04-29T07:22:43.109Z,2.35
2019-04-29T07:25:11.737Z,2.05
2019-04-29T07:27:43.360Z,1.02
2019-04-29T07:30:11.254Z,1.30
2019-04-29T07:32:42.114Z,1.65
2019-04-29T07:35:11.473Z,1.57
2019-04-29T07:37:40.216Z,0.80
2019-04-29T07:40:09.486Z,0.60
2019-04-29T07:42:38.385Z,0.65
2019-04-29T07:45:29.181Z,0.93
2019-04-29T07:48:01.631Z,0.85
2019-04-29T07:50:28.586Z,1.10
2019-04-29T07:52:57.295Z,0.62
2019-04-29T07:55:30.641Z,0.90
2019-04-29T07:57:56.250Z,0.90
2019-04-29T08:00:33.621Z,2.53
2019-04-29T08:03:03.835Z,0.98
2019-04-29T08:05:32.802Z,1.87
2019-04-29T08:08:01.715Z,1.77
2019-04-29T08:10:30.261Z,1.17
2019-04-29T08:13:00.085Z,0.80
2019-04-29T08:15:31.725Z,0.90
2019-04-29T08:18:06.303Z,0.85
2019-04-29T08:20:29.659Z,0.78
2019-04-29T08:22:58.458Z,1.57
2019-04-29T08:25:28.496Z,0.95
2019-04-29T08:27:57.088Z,1.67
2019-04-29T08:30:25.828Z,2.17
2019-04-29T08:32:54.321Z,1.40
2019-04-29T08:35:22.870Z,2.47
2019-04-29T08:37:52.253Z,3.26
2019-04-29T08:40:20.965Z,2.35
2019-04-29T08:43:07.581Z,2.02
2019-04-29T08:45:40.550Z,1.45
2019-04-29T08:48:09.371Z,0.82
2019-04-29T08:50:38.035Z,1.10
2019-04-29T08:53:06.946Z,0.62
2019-04-29T08:55:36.515Z,0.78
2019-04-29T08:58:06.984Z,1.42
2019-04-29T09:00:36.204Z,0.98
2019-04-29T09:03:05.548Z,1.05
2019-04-29T09:05:34.209Z,1.30
2019-04-29T09:08:02.753Z,0.98
2019-04-29T09:10:33.071Z,1.20
2019-04-29T09:13:01.608Z,1.30
2019-04-29T09:15:30.643Z,1.02
2019-04-29T09:17:59.264Z,1.30
2019-04-29T09:20:27.893Z,1.12
2019-04-29T09:23:10.200Z,1.77
2019-04-29T09:25:43.896Z,1.77
2019-04-29T09:28:22.523Z,1.17
2019-04-29T09:30:47.283Z,1.30
2019-04-29T09:33:15.968Z,1.40
2019-04-29T09:35:44.640Z,1.10
2019-04-29T09:38:13.645Z,2.08
2019-04-29T09:40:46.583Z,0.90
2019-04-29T09:43:16.919Z,1.70
2019-04-29T09:45:47.327Z,1.40
2019-04-29T09:48:15.907Z,1.77
2019-04-29T09:50:44.499Z,1.95
2019-04-29T09:53:13.178Z,1.20
2019-04-29T09:55:41.713Z,1.55
2019-04-29T09:58:10.374Z,2.60
2019-04-29T10:00:43.126Z,1.87
2019-04-29T10:03:13.326Z,1.98
2019-04-29T10:05:46.335Z,1.53
2019-04-29T10:08:15.743Z,1.62
2019-04-29T10:10:45.151Z,1.45
2019-04-29T10:13:13.814Z,1.32
2019-04-29T10:16:02.062Z,1.33
2019-04-29T10:18:35.490Z,1.77
2019-04-29T10:21:05.747Z,1.42
2019-04-29T10:23:35.219Z,2.33
2019-04-29T10:26:03.726Z,1.90
2019-04-29T10:28:33.643Z,1.85
2019-04-29T10:31:03.906Z,1.77
2019-04-29T10:33:32.501Z,2.35
2019-04-29T10:36:01.068Z,1.50
2019-04-29T10:38:29.629Z,2.42
2019-04-29T10:41:00.709Z,2.65
2019-04-29T10:43:32.108Z,2.50
2019-04-29T10:46:19.186Z,2.35
2019-04-29T10:48:52.230Z,1.82
2019-04-29T10:51:23.279Z,2.12
2019-04-29T10:53:52.725Z,2.33
2019-04-29T10:56:21.566Z,4.10
2019-04-29T10:58:50.260Z,5.53
2019-04-29T11:01:29.603Z,2.45
2019-04-29T11:04:00.767Z,2.25
2019-04-29T11:06:31.439Z,3.30
2019-04-29T11:09:01.040Z,2.75
2019-04-29T11:11:32.730Z,2.25
2019-04-29T11:14:03.194Z,1.92
2019-04-29T11:16:46.157Z,3.03
2019-04-29T11:19:05.374Z,2.67
2019-04-29T11:21:33.658Z,2.78
2019-04-29T11:24:13.011Z,2.65
2019-04-29T11:26:44.823Z,2.88
2019-04-29T11:29:13.681Z,3.17
2019-04-29T11:31:42.483Z,2.53
2019-04-29T11:34:17.810Z,2.60
2019-04-29T11:36:46.280Z,3.84
2019-04-29T11:39:16.258Z,4.62
2019-04-29T11:41:44.947Z,2.40
2019-04-29T11:44:13.698Z,2.92
2019-04-29T11:46:44.566Z,3.02
2019-04-29T11:49:14.113Z,3.90
2019-04-29T11:52:07.638Z,3.15
2019-04-29T11:54:18.410Z,3.83
2019-04-29T11:56:47.145Z,2.95
2019-04-29T11:59:29.434Z,3.22
2019-04-29T12:02:02.508Z,3.80
2019-04-29T12:04:42.338Z,4.03
2019-04-29T12:07:11.186Z,4.10
2019-04-29T12:09:39.854Z,4.30
2019-04-29T12:12:12.861Z,4.12
2019-04-29T12:14:42.029Z,4.40
2019-04-29T12:17:19.324Z,4.92
2019-04-29T12:19:49.633Z,5.08
2019-04-29T12:22:28.245Z,4.03
2019-04-29T12:24:48.846Z,4.30
2019-04-29T12:27:19.938Z,3.77
2019-04-29T12:29:48.841Z,3.83
2019-04-29T12:32:26.673Z,7.10
2019-04-29T12:35:16.711Z,6.63
2019-04-29T12:37:47.876Z,13.57
2019-04-29T12:40:34.241Z,7.95
2019-04-29T12:43:11.253Z,7.40
2019-04-29T12:45:39.755Z,5.17
2019-04-29T12:48:08.539Z,5.85
2019-04-29T12:50:37.158Z,5.83
2019-04-29T12:53:05.919Z,9.55
2019-04-29T12:55:45.021Z,16.50
2019-04-29T12:58:08.803Z,7.62
2019-04-29T13:00:47.442Z,6.25
2019-04-29T13:03:16.768Z,5.68
2019-04-29T13:06:03.527Z,7.62
2019-04-29T13:08:42.945Z,8.37
2019-04-29T13:11:14.789Z,5.45
2019-04-29T13:13:41.893Z,4.05
2019-04-29T13:16:21.792Z,6.12
2019-04-29T13:19:11.388Z,13.20
2019-04-29T13:21:34.651Z,11.58
2019-04-29T13:24:13.549Z,25.68
2019-04-29T13:26:37.403Z,22.08
2019-04-29T13:29:04.794Z,16.17
2019-04-29T13:31:38.536Z,11.57
2019-04-29T13:34:34.619Z,8.95
2019-04-29T13:36:35.794Z,9.38
2019-04-29T13:39:08.219Z,11.20
2019-04-29T13:41:55.561Z,10.10
2019-04-29T13:44:07.676Z,7.62
2019-04-29T13:46:40.852Z,6.03
2019-04-29T13:49:25.590Z,6.80
2019-04-29T13:51:55.961Z,7.63
2019-04-29T13:54:24.486Z,4.92
2019-04-29T13:56:56.409Z,6.00
2019-04-29T13:59:31.443Z,10.18
2019-04-29T14:02:06.919Z,9.00
2019-04-29T14:04:47.783Z,13.65
2019-04-29T14:07:18.269Z,11.33
2019-04-29T14:09:47.902Z,5.47
2019-04-29T14:12:46.990Z,3.42
2019-04-29T14:14:47.515Z,4.85
2019-04-29T14:17:25.964Z,4.58
2019-04-29T14:19:46.414Z,2.42
2019-04-29T14:22:22.016Z,2.72
2019-04-29T14:24:46.983Z,3.53
2019-04-29T14:27:24.471Z,5.10
2019-04-29T14:29:46.176Z,3.83
2019-04-29T14:32:18.143Z,3.45
2019-04-29T14:34:46.624Z,4.17
2019-04-29T14:37:21.576Z,6.20
2019-04-29T14:39:45.458Z,5.87
2019-04-29T14:42:25.765Z,7.92
2019-04-29T14:44:59.311Z,5.85
2019-04-29T14:47:38.564Z,6.53
2019-04-29T14:50:15.682Z,5.10
2019-04-29T14:52:44.678Z,6.17
2019-04-29T14:55:14.947Z,4.92
2019-04-29T14:57:43.282Z,6.08
2019-04-29T15:00:20.175Z,6.93
2019-04-29T15:02:48.954Z,5.30
2019-04-29T15:05:17.912Z,4.03
2019-04-29T15:07:46.707Z,4.90
2019-04-29T15:10:15.663Z,4.75
2019-04-29T15:13:11.451Z,5.65
2019-04-29T15:15:34.118Z,6.33
2019-04-29T15:18:02.222Z,7.22
2019-04-29T15:20:44.525Z,4.62
2019-04-29T15:23:13.089Z,5.12
2019-04-29T15:25:41.635Z,5.33
2019-04-29T15:28:10.302Z,5.35
2019-04-29T15:30:39.041Z,9.80
2019-04-29T15:33:07.580Z,7.15
2019-04-29T15:35:36.383Z,6.12
2019-04-29T15:38:05.063Z,10.75
2019-04-29T15:40:33.640Z,6.45
2019-04-29T15:43:02.322Z,6.45
2019-04-29T15:45:32.563Z,6.53
2019-04-29T15:48:01.158Z,6.30
2019-04-29T15:50:32.602Z,5.75
2019-04-29T15:53:02.963Z,5.58
2019-04-29T15:55:30.577Z,6.53
2019-04-29T15:57:59.351Z,6.72
2019-04-29T16:00:36.696Z,6.62
2019-04-29T16:02:58.239Z,6.50
2019-04-29T16:05:54.207Z,6.62
2019-04-29T16:08:12.313Z,6.03
2019-04-29T16:10:59.262Z,7.45
2019-04-29T16:13:29.427Z,7.83
2019-04-29T16:15:58.031Z,9.13
2019-04-29T16:18:26.673Z,6.08
2019-04-29T16:20:55.214Z,6.33
2019-04-29T16:23:24.203Z,6.24
2019-04-29T16:25:54.406Z,6.40
2019-04-29T16:28:24.340Z,5.15
2019-04-29T16:30:53.380Z,8.53
2019-04-29T16:33:21.939Z,5.90
2019-04-29T16:35:50.630Z,5.15
2019-04-29T16:38:19.787Z,6.10
2019-04-29T16:41:12.455Z,6.55
2019-04-29T16:43:43.644Z,8.58
2019-04-29T16:46:23.457Z,5.83
2019-04-29T16:48:51.172Z,6.95
2019-04-29T16:51:19.806Z,5.03
2019-04-29T16:53:48.396Z,5.35
2019-04-29T16:56:16.931Z,7.10
2019-04-29T16:58:45.548Z,6.20
2019-04-29T17:01:14.479Z,3.93
2019-04-29T17:03:43.427Z,4.35
2019-04-29T17:06:12.204Z,4.17
2019-04-29T17:09:04.961Z,4.22
2019-04-29T17:11:35.499Z,5.60
2019-04-29T17:14:12.491Z,4.45
2019-04-29T17:16:34.607Z,5.65
2019-04-29T17:19:03.244Z,4.37
2019-04-29T17:21:32.403Z,4.17
2019-04-29T17:24:01.026Z,3.80
2019-04-29T17:26:31.178Z,4.40
2019-04-29T17:29:37.817Z,5.15
2019-04-29T17:32:04.238Z,4.05
2019-04-29T17:34:56.687Z,3.65
2019-04-29T17:37:06.378Z,5.05
2019-04-29T17:39:35.786Z,3.62
2019-04-29T17:42:04.481Z,4.30
2019-04-29T17:44:40.645Z,6.47
2019-04-29T17:47:13.782Z,5.08
2019-04-29T17:49:47.288Z,4.00
2019-04-29T17:52:17.935Z,4.15
2019-04-29T17:54:48.576Z,4.30
2019-04-29T17:57:28.317Z,67.97
2019-04-29T18:00:00.509Z,7.20
2019-04-29T18:02:28.621Z,5.33
2019-04-29T18:05:01.925Z,4.80
2019-04-29T18:07:35.376Z,4.67
2019-04-29T18:10:17.638Z,4.75
2019-04-29T18:12:47.164Z,6.20
2019-04-29T18:15:20.179Z,9.70
2019-04-29T18:17:50.761Z,4.12
2019-04-29T18:20:33.515Z,7.60
2019-04-29T18:23:11.097Z,90.25
2019-04-29T18:25:39.599Z,21.37
2019-04-29T18:28:08.758Z,40.50
2019-04-29T18:30:38.482Z,24.85
2019-04-29T18:33:07.437Z,5.55
2019-04-29T18:35:36.216Z,6.63
2019-04-29T18:38:07.555Z,5.55
2019-04-29T18:40:41.863Z,5.85
2019-04-29T18:43:07.643Z,6.47
2019-04-29T18:45:36.811Z,5.70
2019-04-29T18:48:09.100Z,42.90
2019-04-29T18:50:38.846Z,25.12
2019-04-29T18:53:06.945Z,42.87
2019-04-29T18:55:35.825Z,87.70
2019-04-29T18:58:05.787Z,39.97
2019-04-29T19:00:34.862Z,43.63
2019-04-29T19:03:06.472Z,62.50
2019-04-29T19:05:45.902Z,53.80
2019-04-29T19:08:19.375Z,61.53
2019-04-29T19:10:52.351Z,27.98
2019-04-29T19:13:21.370Z,59.90
2019-04-29T19:15:50.255Z,52.20
2019-04-29T19:18:21.038Z,31.00
2019-04-29T19:20:52.814Z,25.50
2019-04-29T19:23:22.296Z,14.78
2019-04-29T19:25:50.003Z,51.03
2019-04-29T19:28:29.467Z,16.82
2019-04-29T19:30:49.851Z,17.15
2019-04-29T19:33:18.586Z,13.68
2019-04-29T19:35:47.391Z,23.42
2019-04-29T19:38:16.530Z,14.50
2019-04-29T19:40:45.134Z,15.53
2019-04-29T19:43:15.385Z,17.20
2019-04-29T19:45:48.852Z,14.73
2019-04-29T19:48:17.195Z,13.68
2019-04-29T19:50:51.693Z,15.08
2019-04-29T19:53:16.755Z,13.35
2019-04-29T19:55:45.722Z,14.05
2019-04-29T19:58:34.253Z,15.53
2019-04-29T20:01:11.545Z,13.78
2019-04-29T20:03:37.455Z,13.45
2019-04-29T20:06:21.100Z,12.45
2019-04-29T20:08:53.477Z,18.20
2019-04-29T20:11:14.349Z,14.83
2019-04-29T20:13:42.242Z,14.05
2019-04-29T20:16:42.930Z,16.95
2019-04-29T20:19:18.064Z,15.28
2019-04-29T20:21:42.964Z,48.73
2019-04-29T20:24:15.610Z,18.25
2019-04-29T20:26:44.247Z,15.95
2019-04-29T20:29:12.456Z,27.70
2019-04-29T20:32:00.402Z,59.77
2019-04-29T20:34:29.413Z,69.58
2019-04-29T20:36:58.252Z,26.65
2019-04-29T20:39:27.244Z,29.65
2019-04-29T20:41:56.343Z,20.55
2019-04-29T20:44:25.302Z,16.35
2019-04-29T20:47:14.210Z,18.50
2019-04-29T20:49:26.293Z,16.55
2019-04-29T20:51:56.803Z,18.20
2019-04-29T20:54:36.284Z,19.45
2019-04-29T20:57:12.568Z,20.25
2019-04-29T20:59:35.946Z,23.73
2019-04-29T21:02:12.644Z,24.73
2019-04-29T21:04:45.739Z,24.50
2019-04-29T21:07:07.253Z,25.97
2019-04-29T21:09:35.973Z,25.97
2019-04-29T21:12:21.495Z,27.40
2019-04-29T21:14:59.518Z,28.17
2019-04-29T21:17:31.649Z,27.37
2019-04-29T21:19:58.518Z,27.50
2019-04-29T21:22:27.334Z,27.33
2019-04-29T21:24:55.913Z,32.00
2019-04-29T21:27:26.033Z,31.83
2019-04-29T21:29:56.443Z,25.68
2019-04-29T21:32:25.780Z,24.60
2019-04-29T21:35:05.752Z,23.27
2019-04-29T21:37:40.104Z,23.47
2019-04-29T21:40:14.843Z,22.85
2019-04-29T21:42:47.123Z,21.83
2019-04-29T21:45:17.498Z,20.23
2019-04-29T21:47:52.925Z,22.00
2019-04-29T21:50:17.554Z,22.73
2019-04-29T21:52:46.860Z,38.67
2019-04-29T21:55:16.085Z,47.75
2019-04-29T21:57:45.358Z,23.42
2019-04-29T22:00:19.685Z,21.65
2019-04-29T22:02:48.396Z,81.57
2019-04-29T22:05:18.400Z,52.85
2019-04-29T22:07:47.555Z,19.77
2019-04-29T22:10:19.973Z,21.65
2019-04-29T22:12:50.966Z,22.77
2019-04-29T22:15:29.251Z,19.87
2019-04-29T22:17:56.196Z,17.00
2019-04-29T22:20:18.186Z,14.27
2019-04-29T22:22:47.791Z,15.10
2019-04-29T22:25:16.684Z,15.05
2019-04-29T22:28:05.109Z,16.20
2019-04-29T22:30:35.411Z,14.70
2019-04-29T22:33:05.212Z,13.97
2019-04-29T22:35:37.218Z,13.13
2019-04-29T22:38:07.733Z,13.45
2019-04-29T22:40:41.063Z,10.80
2019-04-29T22:43:10.207Z,11.03
2019-04-29T22:45:39.026Z,10.53
2019-04-29T22:48:16.503Z,10.43
2019-04-29T22:50:39.459Z,11.48
2019-04-29T22:53:09.130Z,9.70
2019-04-29T22:55:39.016Z,9.33
2019-04-29T22:58:09.751Z,10.53
2019-04-29T23:00:38.169Z,8.05
2019-04-29T23:03:06.808Z,7.62
2019-04-29T23:05:35.949Z,6.70
2019-04-29T23:08:05.758Z,6.90
2019-04-29T23:10:35.669Z,7.83
2019-04-29T23:13:06.244Z,6.12
2019-04-29T23:15:35.704Z,6.90
2019-04-29T23:18:06.344Z,7.05
2019-04-29T23:20:36.538Z,7.00
2019-04-29T23:23:07.643Z,6.70
2019-04-29T23:25:53.315Z,7.40
2019-04-29T23:28:26.915Z,7.20
2019-04-29T23:30:53.815Z,7.62
2019-04-29T23:33:23.956Z,6.97
2019-04-29T23:35:52.798Z,8.90
2019-04-29T23:38:22.303Z,7.30
2019-04-29T23:40:54.510Z,6.03
2019-04-29T23:43:25.299Z,6.75
2019-04-29T23:45:51.810Z,5.60
2019-04-29T23:48:23.821Z,5.87
2019-04-29T23:50:54.706Z,5.95
2019-04-29T23:53:25.236Z,5.90
2019-04-29T23:55:52.463Z,4.77
2019-04-29T23:58:37.172Z,5.33
